sensor_id;sensor_type;location;lat;lon;timestamp;temperature;humidity
32027;DHT22;18543;50.848;4.596;2022-09-27T00:01:09;22.60;61.10
32027;DHT22;18543;50.848;4.596;2022-09-27T00:03:37;22.60;61.50
32027;DHT22;18543;50.848;4.596;2022-09-27T00:06:15;22.60;61.20
32027;DHT22;18543;50.848;4.596;2022-09-27T00:08:42;22.60;61.30
32027;DHT22;18543;50.848;4.596;2022-09-27T00:13:55;22.60;61.40
32027;DHT22;18543;50.848;4.596;2022-09-27T00:16:27;22.60;61.00
32027;DHT22;18543;50.848;4.596;2022-09-27T00:18:59;22.60;61.30
32027;DHT22;18543;50.848;4.596;2022-09-27T00:21:27;22.50;60.80
32027;DHT22;18543;50.848;4.596;2022-09-27T00:23:56;22.50;61.00
32027;DHT22;18543;50.848;4.596;2022-09-27T00:26:25;22.50;61.10
32027;DHT22;18543;50.848;4.596;2022-09-27T00:28:52;22.50;61.00
32027;DHT22;18543;50.848;4.596;2022-09-27T00:31:22;22.50;60.70
32027;DHT22;18543;50.848;4.596;2022-09-27T00:33:51;22.50;61.00
32027;DHT22;18543;50.848;4.596;2022-09-27T00:36:19;22.50;60.80
32027;DHT22;18543;50.848;4.596;2022-09-27T00:38:46;22.50;61.50
32027;DHT22;18543;50.848;4.596;2022-09-27T00:41:16;22.50;61.00
32027;DHT22;18543;50.848;4.596;2022-09-27T00:46:35;22.50;60.70
32027;DHT22;18543;50.848;4.596;2022-09-27T00:51:44;22.40;60.60
32027;DHT22;18543;50.848;4.596;2022-09-27T00:54:16;22.40;61.00
32027;DHT22;18543;50.848;4.596;2022-09-27T00:56:45;22.50;60.90
32027;DHT22;18543;50.848;4.596;2022-09-27T00:59:15;22.40;60.40
32027;DHT22;18543;50.848;4.596;2022-09-27T01:01:43;22.40;60.30
32027;DHT22;18543;50.848;4.596;2022-09-27T01:04:13;22.40;60.30
32027;DHT22;18543;50.848;4.596;2022-09-27T01:06:40;22.40;61.00
32027;DHT22;18543;50.848;4.596;2022-09-27T01:09:08;22.30;60.60
32027;DHT22;18543;50.848;4.596;2022-09-27T01:11:50;22.30;60.70
32027;DHT22;18543;50.848;4.596;2022-09-27T01:20:21;22.30;61.20
32027;DHT22;18543;50.848;4.596;2022-09-27T01:25:49;22.40;61.10
32027;DHT22;18543;50.848;4.596;2022-09-27T01:34:03;22.40;60.40
32027;DHT22;18543;50.848;4.596;2022-09-27T01:39:50;22.40;60.20
32027;DHT22;18543;50.848;4.596;2022-09-27T01:44:58;22.30;59.80
32027;DHT22;18543;50.848;4.596;2022-09-27T01:50:09;22.20;60.20
32027;DHT22;18543;50.848;4.596;2022-09-27T01:52:52;22.20;60.30
32027;DHT22;18543;50.848;4.596;2022-09-27T01:55:23;22.20;60.40
32027;DHT22;18543;50.848;4.596;2022-09-27T01:58:05;22.10;60.40
32027;DHT22;18543;50.848;4.596;2022-09-27T02:00:39;22.10;60.60
32027;DHT22;18543;50.848;4.596;2022-09-27T02:03:19;22.10;60.30
32027;DHT22;18543;50.848;4.596;2022-09-27T02:05:54;22.10;60.70
32027;DHT22;18543;50.848;4.596;2022-09-27T02:10:58;22.10;60.80
32027;DHT22;18543;50.848;4.596;2022-09-27T02:22:29;22.00;61.20
32027;DHT22;18543;50.848;4.596;2022-09-27T02:25:08;22.00;61.10
32027;DHT22;18543;50.848;4.596;2022-09-27T02:27:57;22.10;60.70
32027;DHT22;18543;50.848;4.596;2022-09-27T02:30:26;22.10;60.50
32027;DHT22;18543;50.848;4.596;2022-09-27T02:32:53;22.00;60.60
32027;DHT22;18543;50.848;4.596;2022-09-27T02:35:30;22.10;60.70
32027;DHT22;18543;50.848;4.596;2022-09-27T02:37:57;22.00;61.10
32027;DHT22;18543;50.848;4.596;2022-09-27T02:40:30;22.10;60.80
32027;DHT22;18543;50.848;4.596;2022-09-27T02:42:59;22.10;60.60
32027;DHT22;18543;50.848;4.596;2022-09-27T02:45:34;22.00;60.50
32027;DHT22;18543;50.848;4.596;2022-09-27T02:48:19;22.00;60.60
32027;DHT22;18543;50.848;4.596;2022-09-27T02:51:04;22.00;60.60
32027;DHT22;18543;50.848;4.596;2022-09-27T02:56:26;22.00;60.30
32027;DHT22;18543;50.848;4.596;2022-09-27T03:02:11;21.90;60.30
32027;DHT22;18543;50.848;4.596;2022-09-27T03:04:48;21.90;60.40
32027;DHT22;18543;50.848;4.596;2022-09-27T03:07:19;22.00;60.40
32027;DHT22;18543;50.848;4.596;2022-09-27T03:09:51;21.90;60.20
32027;DHT22;18543;50.848;4.596;2022-09-27T03:12:19;21.90;60.40
32027;DHT22;18543;50.848;4.596;2022-09-27T03:14:57;21.90;60.70
32027;DHT22;18543;50.848;4.596;2022-09-27T03:17:24;21.90;60.80
32027;DHT22;18543;50.848;4.596;2022-09-27T03:19:51;21.90;60.50
32027;DHT22;18543;50.848;4.596;2022-09-27T03:22:18;21.90;60.70
32027;DHT22;18543;50.848;4.596;2022-09-27T03:24:45;21.90;60.60
32027;DHT22;18543;50.848;4.596;2022-09-27T03:27:12;21.90;60.90
32027;DHT22;18543;50.848;4.596;2022-09-27T03:29:39;21.90;60.70
32027;DHT22;18543;50.848;4.596;2022-09-27T03:32:05;22.00;60.90
32027;DHT22;18543;50.848;4.596;2022-09-27T03:34:35;21.90;60.40
32027;DHT22;18543;50.848;4.596;2022-09-27T03:37:02;22.00;60.60
32027;DHT22;18543;50.848;4.596;2022-09-27T03:39:29;21.90;60.50
32027;DHT22;18543;50.848;4.596;2022-09-27T03:41:56;21.90;60.90
32027;DHT22;18543;50.848;4.596;2022-09-27T03:44:22;22.00;60.60
32027;DHT22;18543;50.848;4.596;2022-09-27T03:46:49;21.90;60.40
32027;DHT22;18543;50.848;4.596;2022-09-27T03:49:16;21.90;60.50
32027;DHT22;18543;50.848;4.596;2022-09-27T03:51:43;21.90;60.70
32027;DHT22;18543;50.848;4.596;2022-09-27T03:54:10;21.90;60.60
32027;DHT22;18543;50.848;4.596;2022-09-27T03:56:39;21.80;60.40
32027;DHT22;18543;50.848;4.596;2022-09-27T03:59:05;21.80;60.60
32027;DHT22;18543;50.848;4.596;2022-09-27T04:01:32;21.80;60.60
32027;DHT22;18543;50.848;4.596;2022-09-27T04:04:01;21.80;60.60
32027;DHT22;18543;50.848;4.596;2022-09-27T04:06:31;21.80;60.70
32027;DHT22;18543;50.848;4.596;2022-09-27T04:08:57;21.80;60.80
32027;DHT22;18543;50.848;4.596;2022-09-27T04:11:24;21.70;60.90
32027;DHT22;18543;50.848;4.596;2022-09-27T04:13:51;21.70;60.80
32027;DHT22;18543;50.848;4.596;2022-09-27T04:16:17;21.70;61.00
32027;DHT22;18543;50.848;4.596;2022-09-27T04:18:44;21.70;61.00
32027;DHT22;18543;50.848;4.596;2022-09-27T04:21:12;21.70;60.80
32027;DHT22;18543;50.848;4.596;2022-09-27T04:23:39;21.70;60.80
32027;DHT22;18543;50.848;4.596;2022-09-27T04:26:06;21.70;60.90
32027;DHT22;18543;50.848;4.596;2022-09-27T04:28:33;21.70;60.90
32027;DHT22;18543;50.848;4.596;2022-09-27T04:31:00;21.70;60.90
32027;DHT22;18543;50.848;4.596;2022-09-27T04:33:26;21.70;60.70
32027;DHT22;18543;50.848;4.596;2022-09-27T04:35:53;21.70;60.70
32027;DHT22;18543;50.848;4.596;2022-09-27T04:38:39;21.70;60.70
32027;DHT22;18543;50.848;4.596;2022-09-27T04:41:06;21.70;60.50
32027;DHT22;18543;50.848;4.596;2022-09-27T04:43:33;21.70;61.10
32027;DHT22;18543;50.848;4.596;2022-09-27T04:46:00;21.70;60.70
32027;DHT22;18543;50.848;4.596;2022-09-27T04:48:27;21.70;60.60
32027;DHT22;18543;50.848;4.596;2022-09-27T04:51:01;21.70;61.10
32027;DHT22;18543;50.848;4.596;2022-09-27T04:53:30;21.70;60.70
32027;DHT22;18543;50.848;4.596;2022-09-27T04:55:58;21.70;60.50
32027;DHT22;18543;50.848;4.596;2022-09-27T04:58:28;21.70;60.50
32027;DHT22;18543;50.848;4.596;2022-09-27T05:00:55;21.70;60.40
32027;DHT22;18543;50.848;4.596;2022-09-27T05:03:22;21.70;60.50
32027;DHT22;18543;50.848;4.596;2022-09-27T05:05:49;21.70;60.60
32027;DHT22;18543;50.848;4.596;2022-09-27T05:08:15;21.70;60.80
32027;DHT22;18543;50.848;4.596;2022-09-27T05:10:42;21.70;60.70
32027;DHT22;18543;50.848;4.596;2022-09-27T05:13:09;21.70;60.70
32027;DHT22;18543;50.848;4.596;2022-09-27T05:15:36;21.70;60.80
32027;DHT22;18543;50.848;4.596;2022-09-27T05:18:05;21.80;61.10
32027;DHT22;18543;50.848;4.596;2022-09-27T05:20:33;21.80;60.90
32027;DHT22;18543;50.848;4.596;2022-09-27T05:23:00;21.80;60.70
32027;DHT22;18543;50.848;4.596;2022-09-27T05:25:28;21.80;60.60
32027;DHT22;18543;50.848;4.596;2022-09-27T05:27:57;21.80;60.60
32027;DHT22;18543;50.848;4.596;2022-09-27T05:30:25;21.80;60.60
32027;DHT22;18543;50.848;4.596;2022-09-27T05:32:53;21.80;60.70
32027;DHT22;18543;50.848;4.596;2022-09-27T05:35:20;21.80;60.90
32027;DHT22;18543;50.848;4.596;2022-09-27T05:37:54;21.80;60.40
32027;DHT22;18543;50.848;4.596;2022-09-27T05:40:22;21.80;60.90
32027;DHT22;18543;50.848;4.596;2022-09-27T05:43:07;21.90;60.70
32027;DHT22;18543;50.848;4.596;2022-09-27T05:45:33;21.80;60.60
32027;DHT22;18543;50.848;4.596;2022-09-27T05:48:00;21.80;61.00
32027;DHT22;18543;50.848;4.596;2022-09-27T05:50:27;21.90;60.70
32027;DHT22;18543;50.848;4.596;2022-09-27T05:52:54;21.90;60.40
32027;DHT22;18543;50.848;4.596;2022-09-27T05:55:21;21.90;60.60
32027;DHT22;18543;50.848;4.596;2022-09-27T05:58:04;21.90;60.50
32027;DHT22;18543;50.848;4.596;2022-09-27T06:00:32;21.90;61.00
32027;DHT22;18543;50.848;4.596;2022-09-27T06:03:00;21.90;58.80
32027;DHT22;18543;50.848;4.596;2022-09-27T06:05:30;21.40;56.30
32027;DHT22;18543;50.848;4.596;2022-09-27T06:08:02;20.80;56.90
32027;DHT22;18543;50.848;4.596;2022-09-27T06:10:31;20.30;57.80
32027;DHT22;18543;50.848;4.596;2022-09-27T06:13:10;19.70;59.10
32027;DHT22;18543;50.848;4.596;2022-09-27T06:15:38;19.40;60.00
32027;DHT22;18543;50.848;4.596;2022-09-27T06:18:14;19.10;61.00
32027;DHT22;18543;50.848;4.596;2022-09-27T06:20:43;19.00;61.30
32027;DHT22;18543;50.848;4.596;2022-09-27T06:23:12;18.80;62.00
32027;DHT22;18543;50.848;4.596;2022-09-27T06:25:41;18.60;62.40
32027;DHT22;18543;50.848;4.596;2022-09-27T06:28:08;18.40;62.80
32027;DHT22;18543;50.848;4.596;2022-09-27T06:30:41;18.20;63.60
32027;DHT22;18543;50.848;4.596;2022-09-27T06:33:13;18.00;64.10
32027;DHT22;18543;50.848;4.596;2022-09-27T06:35:40;17.90;64.50
32027;DHT22;18543;50.848;4.596;2022-09-27T06:38:13;17.90;65.20
32027;DHT22;18543;50.848;4.596;2022-09-27T06:40:42;17.80;65.00
32027;DHT22;18543;50.848;4.596;2022-09-27T06:43:13;17.80;65.10
32027;DHT22;18543;50.848;4.596;2022-09-27T06:45:41;17.80;65.20
32027;DHT22;18543;50.848;4.596;2022-09-27T06:48:10;17.60;65.30
32027;DHT22;18543;50.848;4.596;2022-09-27T06:50:40;17.60;65.80
32027;DHT22;18543;50.848;4.596;2022-09-27T06:53:08;17.60;65.70
32027;DHT22;18543;50.848;4.596;2022-09-27T06:55:37;17.60;65.90
32027;DHT22;18543;50.848;4.596;2022-09-27T06:58:05;17.60;65.60
32027;DHT22;18543;50.848;4.596;2022-09-27T07:00:51;17.60;65.50
32027;DHT22;18543;50.848;4.596;2022-09-27T07:03:22;17.50;66.40
32027;DHT22;18543;50.848;4.596;2022-09-27T07:06:03;17.50;66.20
32027;DHT22;18543;50.848;4.596;2022-09-27T07:08:32;17.50;66.70
32027;DHT22;18543;50.848;4.596;2022-09-27T07:11:04;17.50;67.20
32027;DHT22;18543;50.848;4.596;2022-09-27T07:13:32;17.50;67.30
32027;DHT22;18543;50.848;4.596;2022-09-27T07:16:00;17.50;67.20
32027;DHT22;18543;50.848;4.596;2022-09-27T07:18:27;17.50;66.70
32027;DHT22;18543;50.848;4.596;2022-09-27T07:20:54;17.50;66.10
32027;DHT22;18543;50.848;4.596;2022-09-27T07:23:26;17.50;66.90
32027;DHT22;18543;50.848;4.596;2022-09-27T07:25:53;17.50;66.60
32027;DHT22;18543;50.848;4.596;2022-09-27T07:28:19;17.50;66.70
32027;DHT22;18543;50.848;4.596;2022-09-27T07:30:48;17.50;66.90
32027;DHT22;18543;50.848;4.596;2022-09-27T07:33:15;17.50;67.10
32027;DHT22;18543;50.848;4.596;2022-09-27T07:35:42;17.60;66.90
32027;DHT22;18543;50.848;4.596;2022-09-27T07:38:10;17.60;67.50
32027;DHT22;18543;50.848;4.596;2022-09-27T07:40:40;17.70;67.10
32027;DHT22;18543;50.848;4.596;2022-09-27T07:43:07;17.70;66.80
32027;DHT22;18543;50.848;4.596;2022-09-27T07:45:35;17.80;66.90
32027;DHT22;18543;50.848;4.596;2022-09-27T07:48:04;17.70;67.30
32027;DHT22;18543;50.848;4.596;2022-09-27T07:50:32;17.70;67.50
32027;DHT22;18543;50.848;4.596;2022-09-27T07:52:59;17.70;67.20
32027;DHT22;18543;50.848;4.596;2022-09-27T07:55:26;17.80;66.60
32027;DHT22;18543;50.848;4.596;2022-09-27T07:58:02;17.80;66.50
32027;DHT22;18543;50.848;4.596;2022-09-27T08:00:29;17.70;67.20
32027;DHT22;18543;50.848;4.596;2022-09-27T08:02:56;17.80;67.90
32027;DHT22;18543;50.848;4.596;2022-09-27T08:05:23;17.70;67.50
32027;DHT22;18543;50.848;4.596;2022-09-27T08:07:53;17.80;68.10
32027;DHT22;18543;50.848;4.596;2022-09-27T08:10:22;17.80;67.10
32027;DHT22;18543;50.848;4.596;2022-09-27T08:12:57;17.80;67.00
32027;DHT22;18543;50.848;4.596;2022-09-27T08:15:24;17.90;66.90
32027;DHT22;18543;50.848;4.596;2022-09-27T08:17:52;17.90;67.20
32027;DHT22;18543;50.848;4.596;2022-09-27T08:20:19;17.90;67.90
32027;DHT22;18543;50.848;4.596;2022-09-27T08:22:46;17.90;67.80
32027;DHT22;18543;50.848;4.596;2022-09-27T08:25:12;17.80;66.40
32027;DHT22;18543;50.848;4.596;2022-09-27T08:27:40;17.80;67.20
32027;DHT22;18543;50.848;4.596;2022-09-27T08:30:08;17.80;66.70
32027;DHT22;18543;50.848;4.596;2022-09-27T08:32:35;17.70;67.70
32027;DHT22;18543;50.848;4.596;2022-09-27T08:35:05;17.70;67.50
32027;DHT22;18543;50.848;4.596;2022-09-27T08:37:32;17.50;67.50
32027;DHT22;18543;50.848;4.596;2022-09-27T08:40:00;17.50;68.30
32027;DHT22;18543;50.848;4.596;2022-09-27T08:47:42;17.50;67.90
32027;DHT22;18543;50.848;4.596;2022-09-27T08:50:21;17.50;67.70
32027;DHT22;18543;50.848;4.596;2022-09-27T08:53:03;17.60;67.30
32027;DHT22;18543;50.848;4.596;2022-09-27T08:58:30;17.70;67.40
32027;DHT22;18543;50.848;4.596;2022-09-27T09:01:00;17.70;67.80
32027;DHT22;18543;50.848;4.596;2022-09-27T09:03:30;17.80;66.60
32027;DHT22;18543;50.848;4.596;2022-09-27T09:06:36;17.70;67.50
32027;DHT22;18543;50.848;4.596;2022-09-27T09:11:59;17.90;67.50
32027;DHT22;18543;50.848;4.596;2022-09-27T09:34:04;17.80;67.40
32027;DHT22;18543;50.848;4.596;2022-09-27T09:36:47;17.80;67.00
32027;DHT22;18543;50.848;4.596;2022-09-27T09:39:35;17.80;67.70
32027;DHT22;18543;50.848;4.596;2022-09-27T09:47:55;17.70;68.60
32027;DHT22;18543;50.848;4.596;2022-09-27T09:50:45;17.70;68.50
32027;DHT22;18543;50.848;4.596;2022-09-27T09:56:22;17.70;68.30
32027;DHT22;18543;50.848;4.596;2022-09-27T09:58:59;17.80;68.90
32027;DHT22;18543;50.848;4.596;2022-09-27T10:01:43;17.70;69.20
32027;DHT22;18543;50.848;4.596;2022-09-27T10:04:17;17.70;69.10
32027;DHT22;18543;50.848;4.596;2022-09-27T10:06:46;17.70;69.10
32027;DHT22;18543;50.848;4.596;2022-09-27T10:09:15;17.70;69.70
32027;DHT22;18543;50.848;4.596;2022-09-27T10:11:45;17.70;69.50
32027;DHT22;18543;50.848;4.596;2022-09-27T10:14:14;17.70;70.00
32027;DHT22;18543;50.848;4.596;2022-09-27T10:16:45;17.80;70.50
32027;DHT22;18543;50.848;4.596;2022-09-27T10:19:22;17.80;70.10
32027;DHT22;18543;50.848;4.596;2022-09-27T10:21:52;17.80;70.40
32027;DHT22;18543;50.848;4.596;2022-09-27T10:24:19;17.80;69.60
32027;DHT22;18543;50.848;4.596;2022-09-27T10:26:47;17.90;69.40
32027;DHT22;18543;50.848;4.596;2022-09-27T10:29:21;17.90;68.70
32027;DHT22;18543;50.848;4.596;2022-09-27T10:31:48;17.80;68.80
32027;DHT22;18543;50.848;4.596;2022-09-27T10:34:37;18.00;68.90
32027;DHT22;18543;50.848;4.596;2022-09-27T10:39:39;18.00;68.60
32027;DHT22;18543;50.848;4.596;2022-09-27T10:42:32;18.00;68.90
32027;DHT22;18543;50.848;4.596;2022-09-27T10:45:26;18.00;69.80
32027;DHT22;18543;50.848;4.596;2022-09-27T10:47:53;18.00;69.80
32027;DHT22;18543;50.848;4.596;2022-09-27T10:50:24;17.90;69.30
32027;DHT22;18543;50.848;4.596;2022-09-27T10:53:15;18.00;69.10
32027;DHT22;18543;50.848;4.596;2022-09-27T10:55:47;18.00;69.00
32027;DHT22;18543;50.848;4.596;2022-09-27T10:58:35;18.10;69.00
32027;DHT22;18543;50.848;4.596;2022-09-27T11:01:06;18.10;69.30
32027;DHT22;18543;50.848;4.596;2022-09-27T11:03:48;18.00;68.90
32027;DHT22;18543;50.848;4.596;2022-09-27T11:06:24;18.10;68.80
32027;DHT22;18543;50.848;4.596;2022-09-27T11:08:54;18.10;67.90
32027;DHT22;18543;50.848;4.596;2022-09-27T11:11:26;18.20;69.50
32027;DHT22;18543;50.848;4.596;2022-09-27T11:14:05;18.20;69.50
32027;DHT22;18543;50.848;4.596;2022-09-27T11:17:02;18.30;69.50
32027;DHT22;18543;50.848;4.596;2022-09-27T11:19:57;18.30;68.90
32027;DHT22;18543;50.848;4.596;2022-09-27T11:28:02;18.50;67.80
32027;DHT22;18543;50.848;4.596;2022-09-27T11:51:10;18.50;64.30
32027;DHT22;18543;50.848;4.596;2022-09-27T11:56:57;18.40;64.70
32027;DHT22;18543;50.848;4.596;2022-09-27T12:10:03;18.60;63.50
32027;DHT22;18543;50.848;4.596;2022-09-27T12:12:38;18.60;62.60
32027;DHT22;18543;50.848;4.596;2022-09-27T12:17:43;18.60;61.90
32027;DHT22;18543;50.848;4.596;2022-09-27T12:20:23;18.50;60.90
32027;DHT22;18543;50.848;4.596;2022-09-27T12:23:05;18.60;61.70
32027;DHT22;18543;50.848;4.596;2022-09-27T12:25:35;18.50;61.90
32027;DHT22;18543;50.848;4.596;2022-09-27T12:28:21;18.50;63.70
32027;DHT22;18543;50.848;4.596;2022-09-27T12:31:01;18.50;63.10
32027;DHT22;18543;50.848;4.596;2022-09-27T12:36:50;18.60;63.30
32027;DHT22;18543;50.848;4.596;2022-09-27T12:41:53;18.60;63.40
32027;DHT22;18543;50.848;4.596;2022-09-27T12:44:35;18.60;63.90
32027;DHT22;18543;50.848;4.596;2022-09-27T12:47:22;18.70;64.20
32027;DHT22;18543;50.848;4.596;2022-09-27T12:52:34;18.80;63.60
32027;DHT22;18543;50.848;4.596;2022-09-27T13:01:02;18.90;61.70
32027;DHT22;18543;50.848;4.596;2022-09-27T13:03:50;18.90;61.50
32027;DHT22;18543;50.848;4.596;2022-09-27T13:12:10;19.10;60.80
32027;DHT22;18543;50.848;4.596;2022-09-27T13:22:59;18.90;60.10
32027;DHT22;18543;50.848;4.596;2022-09-27T13:31:06;18.90;61.80
32027;DHT22;18543;50.848;4.596;2022-09-27T13:33:49;18.80;61.50
32027;DHT22;18543;50.848;4.596;2022-09-27T13:47:03;18.90;63.80
32027;DHT22;18543;50.848;4.596;2022-09-27T13:49:40;18.90;61.90
32027;DHT22;18543;50.848;4.596;2022-09-27T13:52:32;18.90;63.20
32027;DHT22;18543;50.848;4.596;2022-09-27T13:55:17;19.00;62.40
32027;DHT22;18543;50.848;4.596;2022-09-27T13:58:01;19.00;61.40
32027;DHT22;18543;50.848;4.596;2022-09-27T14:00:37;18.90;60.50
32027;DHT22;18543;50.848;4.596;2022-09-27T14:03:16;18.90;60.00
32027;DHT22;18543;50.848;4.596;2022-09-27T14:05:54;18.80;59.70
32027;DHT22;18543;50.848;4.596;2022-09-27T14:08:31;18.80;60.40
32027;DHT22;18543;50.848;4.596;2022-09-27T14:11:01;18.70;61.30
32027;DHT22;18543;50.848;4.596;2022-09-27T14:13:30;18.80;60.50
32027;DHT22;18543;50.848;4.596;2022-09-27T14:16:00;18.80;60.30
32027;DHT22;18543;50.848;4.596;2022-09-27T14:18:28;18.80;60.20
32027;DHT22;18543;50.848;4.596;2022-09-27T14:21:53;18.80;60.50
32027;DHT22;18543;50.848;4.596;2022-09-27T14:24:26;18.80;60.30
32027;DHT22;18543;50.848;4.596;2022-09-27T14:27:08;18.90;60.80
32027;DHT22;18543;50.848;4.596;2022-09-27T14:29:42;19.00;60.00
32027;DHT22;18543;50.848;4.596;2022-09-27T14:32:20;19.00;60.10
32027;DHT22;18543;50.848;4.596;2022-09-27T14:35:15;19.00;60.60
32027;DHT22;18543;50.848;4.596;2022-09-27T14:38:04;19.00;60.00
32027;DHT22;18543;50.848;4.596;2022-09-27T14:43:20;19.00;61.10
32027;DHT22;18543;50.848;4.596;2022-09-27T14:45:48;19.00;61.60
32027;DHT22;18543;50.848;4.596;2022-09-27T14:50:58;19.00;61.20
32027;DHT22;18543;50.848;4.596;2022-09-27T14:53:56;18.90;61.50
32027;DHT22;18543;50.848;4.596;2022-09-27T14:56:36;19.00;62.20
32027;DHT22;18543;50.848;4.596;2022-09-27T14:59:09;18.90;61.00
32027;DHT22;18543;50.848;4.596;2022-09-27T15:01:49;18.80;61.30
32027;DHT22;18543;50.848;4.596;2022-09-27T15:04:18;18.70;61.90
32027;DHT22;18543;50.848;4.596;2022-09-27T15:06:46;18.90;64.60
32027;DHT22;18543;50.848;4.596;2022-09-27T15:09:14;19.40;64.20
32027;DHT22;18543;50.848;4.596;2022-09-27T15:11:44;19.70;63.60
32027;DHT22;18543;50.848;4.596;2022-09-27T15:14:15;20.10;63.30
32027;DHT22;18543;50.848;4.596;2022-09-27T15:16:45;20.20;62.60
32027;DHT22;18543;50.848;4.596;2022-09-27T15:21:39;20.50;62.80
32027;DHT22;18543;50.848;4.596;2022-09-27T15:24:39;20.70;62.70
32027;DHT22;18543;50.848;4.596;2022-09-27T15:27:18;20.80;62.70
32027;DHT22;18543;50.848;4.596;2022-09-27T15:29:54;20.90;62.60
32027;DHT22;18543;50.848;4.596;2022-09-27T15:32:26;21.10;62.90
32027;DHT22;18543;50.848;4.596;2022-09-27T15:34:55;21.10;62.70
32027;DHT22;18543;50.848;4.596;2022-09-27T15:37:25;21.10;62.60
32027;DHT22;18543;50.848;4.596;2022-09-27T15:39:53;21.20;62.90
32027;DHT22;18543;50.848;4.596;2022-09-27T15:42:20;21.20;63.10
32027;DHT22;18543;50.848;4.596;2022-09-27T15:44:54;21.30;62.90
32027;DHT22;18543;50.848;4.596;2022-09-27T15:55:13;21.40;63.60
32027;DHT22;18543;50.848;4.596;2022-09-27T15:57:40;21.30;63.80
32027;DHT22;18543;50.848;4.596;2022-09-27T16:00:13;21.30;63.50
32027;DHT22;18543;50.848;4.596;2022-09-27T16:02:42;21.30;63.70
32027;DHT22;18543;50.848;4.596;2022-09-27T16:05:08;21.40;63.60
32027;DHT22;18543;50.848;4.596;2022-09-27T16:07:38;21.40;64.00
32027;DHT22;18543;50.848;4.596;2022-09-27T16:10:15;21.40;63.70
32027;DHT22;18543;50.848;4.596;2022-09-27T16:12:43;21.30;63.90
32027;DHT22;18543;50.848;4.596;2022-09-27T16:15:13;21.30;64.10
32027;DHT22;18543;50.848;4.596;2022-09-27T16:17:43;21.40;64.30
32027;DHT22;18543;50.848;4.596;2022-09-27T16:20:17;21.30;64.50
32027;DHT22;18543;50.848;4.596;2022-09-27T16:22:45;21.30;64.70
32027;DHT22;18543;50.848;4.596;2022-09-27T16:25:11;21.40;64.90
32027;DHT22;18543;50.848;4.596;2022-09-27T16:27:38;21.30;65.00
32027;DHT22;18543;50.848;4.596;2022-09-27T16:30:05;21.40;65.10
32027;DHT22;18543;50.848;4.596;2022-09-27T16:32:38;21.40;65.10
32027;DHT22;18543;50.848;4.596;2022-09-27T16:35:05;21.40;65.10
32027;DHT22;18543;50.848;4.596;2022-09-27T16:37:33;21.40;65.00
32027;DHT22;18543;50.848;4.596;2022-09-27T16:40:00;21.40;65.20
32027;DHT22;18543;50.848;4.596;2022-09-27T16:42:29;21.40;65.30
32027;DHT22;18543;50.848;4.596;2022-09-27T16:44:56;21.40;65.30
32027;DHT22;18543;50.848;4.596;2022-09-27T16:47:23;21.40;65.30
32027;DHT22;18543;50.848;4.596;2022-09-27T16:49:50;21.40;65.20
32027;DHT22;18543;50.848;4.596;2022-09-27T16:52:35;21.40;65.50
32027;DHT22;18543;50.848;4.596;2022-09-27T16:55:02;21.40;65.40
32027;DHT22;18543;50.848;4.596;2022-09-27T16:57:29;21.40;65.40
32027;DHT22;18543;50.848;4.596;2022-09-27T16:59:55;21.40;65.20
32027;DHT22;18543;50.848;4.596;2022-09-27T17:02:23;21.40;65.40
32027;DHT22;18543;50.848;4.596;2022-09-27T17:04:51;21.40;65.40
32027;DHT22;18543;50.848;4.596;2022-09-27T17:07:19;21.40;65.40
32027;DHT22;18543;50.848;4.596;2022-09-27T17:09:48;21.30;65.30
32027;DHT22;18543;50.848;4.596;2022-09-27T17:12:15;21.40;65.30
32027;DHT22;18543;50.848;4.596;2022-09-27T17:14:42;21.40;65.40
32027;DHT22;18543;50.848;4.596;2022-09-27T17:17:09;21.40;66.00
32027;DHT22;18543;50.848;4.596;2022-09-27T17:19:36;21.40;65.40
32027;DHT22;18543;50.848;4.596;2022-09-27T17:22:06;21.40;65.50
32027;DHT22;18543;50.848;4.596;2022-09-27T17:24:33;21.40;65.40
32027;DHT22;18543;50.848;4.596;2022-09-27T17:27:01;21.40;65.30
32027;DHT22;18543;50.848;4.596;2022-09-27T17:29:28;21.40;65.40
32027;DHT22;18543;50.848;4.596;2022-09-27T17:31:56;21.40;65.30
32027;DHT22;18543;50.848;4.596;2022-09-27T17:34:22;21.40;65.30
32027;DHT22;18543;50.848;4.596;2022-09-27T17:36:49;21.40;65.40
32027;DHT22;18543;50.848;4.596;2022-09-27T17:39:19;21.40;65.50
32027;DHT22;18543;50.848;4.596;2022-09-27T17:41:49;21.40;65.60
32027;DHT22;18543;50.848;4.596;2022-09-27T17:44:16;21.50;65.50
32027;DHT22;18543;50.848;4.596;2022-09-27T17:46:45;21.50;65.50
32027;DHT22;18543;50.848;4.596;2022-09-27T17:49:12;21.40;65.50
32027;DHT22;18543;50.848;4.596;2022-09-27T17:51:57;21.50;65.40
32027;DHT22;18543;50.848;4.596;2022-09-27T17:54:24;21.50;65.40
32027;DHT22;18543;50.848;4.596;2022-09-27T17:56:53;21.50;65.50
32027;DHT22;18543;50.848;4.596;2022-09-27T17:59:21;21.50;65.80
32027;DHT22;18543;50.848;4.596;2022-09-27T18:01:48;21.70;66.00
32027;DHT22;18543;50.848;4.596;2022-09-27T18:04:17;21.80;65.80
32027;DHT22;18543;50.848;4.596;2022-09-27T18:06:45;21.80;65.00
32027;DHT22;18543;50.848;4.596;2022-09-27T18:09:18;21.90;65.10
32027;DHT22;18543;50.848;4.596;2022-09-27T18:11:45;22.00;64.60
32027;DHT22;18543;50.848;4.596;2022-09-27T18:14:12;22.00;64.30
32027;DHT22;18543;50.848;4.596;2022-09-27T18:16:40;22.10;64.00
32027;DHT22;18543;50.848;4.596;2022-09-27T18:19:12;22.10;63.30
32027;DHT22;18543;50.848;4.596;2022-09-27T18:21:40;22.00;63.00
32027;DHT22;18543;50.848;4.596;2022-09-27T18:24:08;22.00;63.30
32027;DHT22;18543;50.848;4.596;2022-09-27T18:26:44;22.00;63.40
32027;DHT22;18543;50.848;4.596;2022-09-27T18:29:15;22.10;63.40
32027;DHT22;18543;50.848;4.596;2022-09-27T18:31:43;22.10;63.10
32027;DHT22;18543;50.848;4.596;2022-09-27T18:34:15;22.20;63.00
32027;DHT22;18543;50.848;4.596;2022-09-27T18:36:44;22.20;62.30
32027;DHT22;18543;50.848;4.596;2022-09-27T18:39:16;22.10;62.40
32027;DHT22;18543;50.848;4.596;2022-09-27T18:41:46;22.00;62.30
32027;DHT22;18543;50.848;4.596;2022-09-27T18:44:15;22.00;62.20
32027;DHT22;18543;50.848;4.596;2022-09-27T18:46:42;22.00;62.10
32027;DHT22;18543;50.848;4.596;2022-09-27T18:49:11;22.00;61.70
32027;DHT22;18543;50.848;4.596;2022-09-27T18:51:39;21.90;61.50
32027;DHT22;18543;50.848;4.596;2022-09-27T18:54:16;21.90;61.70
32027;DHT22;18543;50.848;4.596;2022-09-27T18:56:45;21.80;61.60
32027;DHT22;18543;50.848;4.596;2022-09-27T18:59:12;21.80;61.60
32027;DHT22;18543;50.848;4.596;2022-09-27T19:01:42;21.70;61.70
32027;DHT22;18543;50.848;4.596;2022-09-27T19:04:16;21.70;61.80
32027;DHT22;18543;50.848;4.596;2022-09-27T19:06:50;21.70;62.00
32027;DHT22;18543;50.848;4.596;2022-09-27T19:09:17;21.60;62.00
32027;DHT22;18543;50.848;4.596;2022-09-27T19:11:44;21.60;62.10